Latest Weather Observations for Toowoomba

IDQ60901

Issued at 11:21 am EST Sunday 26 April 2015 (issued every 10 minutes, with the page automatically refreshed every 10 minutes)

About weather observations | Map of Brisbane area stations | Latest observations for Brisbane area | Other Formats
Station Details ID: 041529 Name: TOOWOOMBA AIRPORT Lat: -27.54 Lon: 151.91 Height: 640.9 m
Data from the previous 72 hours. | See also: Recent months at Toowoomba
Date/Time
EST
Tmp

°C
App
Tmp
°C
Dew
Point
°C
Rel
Hum
%
Delta-T

°C
Wind Press
QNH
hPa
Press
MSL
hPa
Rain
since
9 am
mm
Dir
 
Spd
km/h
Gust
km/h
Spd
kts
Gust
kts
26/11:00am 15.0 6.9 3.2 45 5.5 WSW 35 50 19 27 1015.9 1013.5 0.0
26/10:30am 14.7 6.6 3.2 46 5.4 WSW 35 50 19 27 1015.8 1013.4 0.0
26/10:00am 14.0 5.3 2.3 45 5.3 W 37 56 20 30 1015.6 1013.1 0.0
26/09:57am 14.2 5.5 1.8 43 5.6 W 37 56 20 30 1015.7 1013.2 0.0
26/09:30am 13.7 5.2 3.2 49 4.9 W 37 50 20 27 1015.9 1013.5 0.0
26/09:00am 12.9 4.8 3.3 52 4.4 WSW 35 54 19 29 1016.1 1013.7 0.0
26/08:51am 12.2 4.0 2.9 53 4.2 W 35 54 19 29 1016.0 1013.6 0.0
26/08:30am 11.9 3.8 3.2 55 4.0 WSW 35 48 19 26 1016.1 1013.7 0.0
26/08:00am 11.1 3.6 3.4 59 3.5 WSW 32 43 17 23 1015.9 1013.5 0.0
26/07:30am 10.6 4.1 2.7 58 3.5 WSW 26 37 14 20 1015.7 1013.2 0.0
26/07:00am 10.1 4.0 2.5 59 3.4 WSW 24 33 13 18 1015.3 1012.8 0.0
26/06:30am 9.9 3.7 2.3 59 3.3 W 24 33 13 18 1015.1 1012.7 0.0
26/06:00am 8.5 3.2 1.9 63 2.8 W 19 24 10 13 1014.8 1012.4 0.0
26/05:30am 8.5 3.2 1.9 63 2.8 WNW 19 24 10 13 1014.5 1012.1 0.0
26/05:00am 9.0 4.2 2.6 64 2.8 WNW 17 20 9 11 1014.3 1011.8 0.0
26/04:30am 9.5 4.7 2.8 63 3.0 W 17 22 9 12 1014.2 1011.7 0.0
26/04:00am 9.9 4.7 2.7 61 3.2 W 19 22 10 12 1014.2 1011.7 0.0
26/03:30am 10.3 5.6 2.9 60 3.3 W 17 22 9 12 1014.0 1011.5 0.0
26/03:00am 11.1 6.3 2.4 55 3.9 W 17 22 9 12 1013.8 1011.3 0.0
26/02:30am 11.9 6.7 2.4 52 4.3 W 19 24 10 13 1013.6 1011.1 0.0
26/02:00am 12.6 7.5 3.0 52 4.4 W 19 26 10 14 1013.6 1011.1 0.0
26/01:30am 12.6 8.3 3.5 54 4.2 WNW 15 19 8 10 1013.6 1011.1 0.0
26/01:00am 13.4 9.6 3.8 52 4.5 W 13 17 7 9 1013.4 1011.0 0.0
26/12:30am 14.1 9.9 3.6 49 4.9 W 15 22 8 12 1013.6 1011.1 0.0
26/12:00am 14.7 10.4 3.2 46 5.4 W 15 20 8 11 1013.7 1011.2 0.0
 
Date/Time
EST
Tmp

°C
App
Tmp
°C
Dew
Point
°C
Rel
Hum
%
Delta-T

°C
Wind Press
QNH
hPa
Press
MSL
hPa
Rain
since
9 am
mm
Dir
 
Spd
km/h
Gust
km/h
Spd
kts
Gust
kts
25/11:30pm 14.5 10.6 3.3 47 5.2 WNW 13 17 7 9 1013.8 1011.3 0.0
25/11:00pm 15.4 12.2 3.2 44 5.7 WNW 9 11 5 6 1013.9 1011.4 0.0
25/10:30pm 15.9 12.0 3.4 43 5.9 W 13 15 7 8 1014.0 1011.5 0.0
25/10:00pm 16.5 12.3 3.9 43 6.1 WSW 15 20 8 11 1014.1 1011.6 0.0
25/09:30pm 16.4 12.8 3.1 41 6.3 W 11 13 6 7 1014.2 1011.7 0.0
25/09:00pm 17.3 14.1 3.2 39 6.7 W 9 11 5 6 1014.0 1011.5 0.0
25/08:30pm 17.6 14.4 2.8 37 7.0 W 9 13 5 7 1013.9 1011.4 0.0
25/08:00pm 18.5 14.6 3.2 36 7.4 W 13 19 7 10 1013.6 1011.1 0.0
25/07:30pm 18.9 15.1 3.9 37 7.3 WSW 13 19 7 10 1013.3 1010.9 0.0
25/07:00pm 19.1 15.3 4.1 37 7.4 W 13 17 7 9 1013.0 1010.6 0.0
25/06:30pm 19.8 16.1 4.3 36 7.7 W 13 15 7 8 1012.7 1010.2 0.0
25/06:00pm 20.5 16.8 4.5 35 8.0 W 13 17 7 9 1012.3 1009.8 0.0
25/05:30pm 21.4 17.2 4.0 32 8.7 WNW 15 19 8 10 1012.1 1009.6 0.0
25/05:00pm 23.1 16.9 4.1 29 9.6 W 26 33 14 18 1011.7 1009.3 0.0
25/04:30pm 23.7 18.3 4.6 29 9.8 WNW 22 30 12 16 1011.6 1009.2 0.0
25/04:00pm 24.6 19.7 4.9 28 10.2 WNW 20 32 11 17 1011.4 1008.9 0.0
25/03:30pm 24.7 19.9 5.5 29 10.1 NW 20 30 11 16 1011.2 1008.7 0.0
25/03:00pm 24.8 19.6 5.6 29 10.1 WNW 22 32 12 17 1011.3 1008.8 0.0
25/02:30pm 25.1 20.2 5.3 28 10.4 WNW 20 32 11 17 1011.4 1008.9 0.0
25/02:00pm 25.6 21.0 5.8 28 10.5 WNW 19 26 10 14 1011.5 1009.0 0.0
25/01:30pm 24.5 19.6 4.3 27 10.4 W 19 32 10 17 1011.7 1009.3 0.0
25/01:00pm 23.8 18.3 4.2 28 10.0 WNW 22 33 12 18 1012.0 1009.5 0.0
25/12:30pm 23.9 19.2 5.3 30 9.7 WNW 19 32 10 17 1012.6 1010.1 0.0
25/12:00pm 23.8 20.3 7.0 34 9.0 WNW 15 26 8 14 1012.9 1010.4 0.0
25/11:30am 23.0 19.3 6.3 34 8.8 W 15 26 8 14 1013.4 1011.0 0.0
25/11:00am 22.4 18.7 6.2 35 8.5 W 15 26 8 14 1014.0 1011.5 0.0
25/10:30am 21.9 18.2 6.2 36 8.2 WNW 15 22 8 12 1014.2 1011.7 0.0
25/10:00am 20.9 17.9 7.5 42 7.1 WNW 13 20 7 11 1014.4 1012.0 0.0
25/09:30am 20.0 17.3 7.4 44 6.7 WNW 11 15 6 8 1014.7 1012.3 0.0
25/09:00am 19.1 17.0 8.1 49 5.9 NW 9 11 5 6 1014.9 1012.5 0.0
25/08:30am 17.6 15.6 8.5 55 4.8 NNW 9 11 5 6 1014.8 1012.4 0.0
25/08:00am 17.2 15.0 7.8 54 4.9 NNW 9 13 5 7 1014.7 1012.3 0.0
25/07:30am 16.4 14.4 8.6 60 4.1 NNW 9 13 5 7 1014.5 1012.1 0.0
25/07:00am 15.0 14.2 9.6 70 2.9 N 4 7 2 4 1013.8 1011.3 0.0
25/06:30am 14.7 12.3 7.0 60 3.9 NNW 9 9 5 5 1013.7 1011.2 0.0
25/06:00am 14.2 12.1 6.8 61 3.7 NW 7 9 4 5 1013.6 1011.1 0.0
25/05:30am 13.7 11.7 7.0 64 3.4 NW 7 7 4 4 1013.3 1010.9 0.0
25/05:00am 14.6 12.6 7.2 61 3.8 NNW 7 7 4 4 1013.1 1010.7 0.0
25/04:30am 14.8 12.8 7.1 60 3.9 NW 7 9 4 5 1013.0 1010.6 0.0
25/04:00am 14.7 12.7 7.0 60 3.9 NW 7 9 4 5 1012.9 1010.4 0.0
25/03:30am 15.4 13.5 6.9 57 4.3 WNW 6 7 3 4 1013.0 1010.6 0.0
25/03:00am 15.9 15.2 7.1 56 4.5 CALM 0 7 0 4 1012.9 1010.4 0.0
25/02:30am 15.7 15.2 7.7 59 4.1 CALM 0 0 0 0 1013.0 1010.6 0.0
25/02:00am 15.8 15.3 7.8 59 4.1 CALM 0 6 0 3 1013.1 1010.7 0.0
25/01:30am 15.6 14.0 8.1 61 3.9 WNW 6 6 3 3 1013.6 1011.1 0.0
25/01:00am 15.2 13.6 8.0 62 3.7 WNW 6 7 3 4 1013.7 1011.2 0.0
25/12:30am 16.0 14.4 8.0 59 4.2 WNW 6 9 3 5 1013.7 1011.2 0.0
25/12:00am 15.8 14.1 8.3 61 3.9 W 7 7 4 4 1013.8 1011.3 0.0
 
Date/Time
EST
Tmp

°C
App
Tmp
°C
Dew
Point
°C
Rel
Hum
%
Delta-T

°C
Wind Press
QNH
hPa
Press
MSL
hPa
Rain
since
9 am
mm
Dir
 
Spd
km/h
Gust
km/h
Spd
kts
Gust
kts
24/11:30pm 16.2 15.5 8.4 60 4.1 W 2 7 1 4 1013.8 1011.3 0.0
24/11:00pm 16.2 14.6 8.7 61 4.0 SW 7 7 4 4 1013.8 1011.3 0.0
24/10:30pm 16.7 15.3 8.7 59 4.2 SSW 6 7 3 4 1013.8 1011.3 0.0
24/10:00pm 17.0 15.6 8.7 58 4.4 SSW 6 9 3 5 1013.8 1011.3 0.0
24/09:30pm 17.1 15.5 8.8 58 4.4 SSW 7 9 4 5 1013.9 1011.4 0.0
24/09:00pm 17.1 15.7 8.8 58 4.4 SSW 6 7 3 4 1013.8 1011.3 0.0
24/08:30pm 17.4 15.8 8.8 57 4.6 SSW 7 9 4 5 1013.8 1011.3 0.0
24/08:00pm 17.7 16.3 8.8 56 4.8 SSW 6 6 3 3 1013.4 1011.0 0.0
24/07:30pm 18.1 16.5 8.9 55 4.9 SSW 7 7 4 4 1013.3 1010.9 0.0
24/07:00pm 18.5 16.9 8.7 53 5.3 SW 7 9 4 5 1012.9 1010.4 0.0
24/06:30pm 18.3 16.3 8.8 54 5.1 SW 9 11 5 6 1012.6 1010.1 0.0
24/06:00pm 18.8 16.8 8.7 52 5.4 WSW 9 11 5 6 1012.5 1010.0 0.0
24/05:30pm 20.2 17.5 8.8 48 6.2 WSW 13 17 7 9 1012.2 1009.7 0.0
24/05:00pm 21.5 18.0 8.7 44 7.0 W 17 22 9 12 1011.7 1009.3 0.0
24/04:30pm 22.3 18.8 8.8 42 7.4 SW 17 24 9 13 1011.5 1009.0 0.0
24/04:00pm 22.1 17.9 8.2 41 7.5 WSW 20 26 11 14 1011.3 1008.8 0.0
24/03:30pm 22.9 19.5 9.3 42 7.6 WSW 17 24 9 13 1011.3 1008.8 0.0
24/03:00pm 23.9 20.0 9.5 40 8.1 SW 20 28 11 15 1011.3 1008.8 0.0
24/02:30pm 23.8 20.8 10.5 43 7.6 WSW 17 22 9 12 1011.4 1008.9 0.0
24/02:00pm 21.8 18.0 9.7 46 6.7 WSW 20 26 11 14 1011.5 1009.0 0.0
24/01:30pm 22.3 18.3 9.1 43 7.3 WSW 20 28 11 15 1011.6 1009.2 0.0
24/01:00pm 22.7 19.0 9.5 43 7.4 WSW 19 26 10 14 1012.0 1009.5 0.0
24/12:30pm 22.3 18.9 10.5 47 6.7 W 19 30 10 16 1012.5 1010.0 0.0
24/12:00pm 22.2 19.0 10.0 46 6.8 WSW 17 28 9 15 1012.8 1010.3 0.0
24/11:30am 21.6 19.3 10.4 49 6.3 WNW 13 20 7 11 1013.4 1011.0 0.0
24/11:00am 20.8 17.9 10.9 53 5.6 W 17 24 9 13 1013.9 1011.4 0.0
24/10:30am 20.2 16.8 10.6 54 5.4 W 19 26 10 14 1014.3 1011.8 0.0
24/10:00am 19.9 16.5 10.6 55 5.2 WNW 19 26 10 14 1014.6 1012.2 0.0
24/09:30am 18.6 16.1 10.9 61 4.3 W 15 19 8 10 1014.3 1011.8 0.0
24/09:00am 17.3 15.5 10.9 66 3.6 W 11 15 6 8 1014.4 1012.0 0.2
24/08:30am 16.3 15.0 11.2 72 2.8 WNW 9 11 5 6 1014.5 1012.1 0.2
24/08:00am 15.4 14.1 11.2 76 2.3 W 9 9 5 5 1014.5 1012.1 0.2
24/07:30am 14.5 13.1 10.9 79 2.0 NW 9 13 5 7 1014.4 1012.0 0.2
24/07:00am 13.8 12.6 10.4 80 1.8 NW 7 9 4 5 1014.1 1011.6 0.2
24/06:30am 13.5 12.3 10.3 81 1.7 WNW 7 9 4 5 1013.8 1011.3 0.2
24/06:00am 13.6 12.6 10.2 80 1.8 W 6 7 3 4 1013.4 1011.0 0.2
24/05:30am 13.4 13.5 10.2 81 1.7 CALM 0 6 0 3 1013.0 1010.6 0.2
24/05:00am 13.9 14.0 10.3 79 1.9 CALM 0 0 0 0 1012.8 1010.3 0.2
24/04:30am 14.5 14.7 10.5 77 2.2 CALM 0 0 0 0 1012.7 1010.2 0.2
24/04:00am 14.3 13.2 10.1 76 2.3 SW 6 6 3 3 1013.0 1010.6 0.2
24/03:30am 14.7 13.4 10.1 74 2.5 SSW 7 7 4 4 1012.8 1010.3 0.2
24/03:00am 15.1 13.9 10.3 73 2.6 S 7 7 4 4 1012.9 1010.4 0.2
24/02:30am 15.2 14.0 10.2 72 2.7 SSW 7 9 4 5 1013.3 1010.9 0.2
24/02:00am 15.2 14.0 10.2 72 2.7 S 7 11 4 6 1013.3 1010.9 0.2
24/01:30am 15.2 14.0 10.2 72 2.7 SSW 7 9 4 5 1013.4 1011.0 0.2
24/01:00am 15.3 14.4 10.5 73 2.6 S 6 9 3 5 1013.7 1011.2 0.2
24/12:30am 15.2 14.0 10.4 73 2.6 SSW 7 9 4 5 1013.8 1011.3 0.2
24/12:00am 15.2 14.0 10.4 73 2.6 SSW 7 9 4 5 1014.2 1011.7 0.2
 
Date/Time
EST
Tmp

°C
App
Tmp
°C
Dew
Point
°C
Rel
Hum
%
Delta-T

°C
Wind Press
QNH
hPa
Press
MSL
hPa
Rain
since
9 am
mm
Dir
 
Spd
km/h
Gust
km/h
Spd
kts
Gust
kts
23/11:30pm 14.9 13.6 10.1 73 2.6 SSW 7 9 4 5 1014.3 1011.8 0.2
23/11:00pm 15.0 13.8 10.2 73 2.6 SSW 7 11 4 6 1014.4 1012.0 0.2
23/10:30pm 14.8 13.5 10.0 73 2.6 SSW 7 11 4 6 1014.5 1012.1 0.2
23/10:00pm 15.0 13.7 9.8 71 2.8 SSW 7 7 4 4 1014.7 1012.3 0.2
23/09:30pm 15.1 13.8 10.1 72 2.7 S 7 9 4 5 1014.5 1012.1 0.2
23/09:00pm 14.6 13.3 9.2 70 2.9 S 6 9 3 5 1014.7 1012.3 0.2
23/08:30pm 14.9 13.1 9.3 69 3.0 SW 9 9 5 5 1014.6 1012.2 0.2
23/08:00pm 15.6 14.1 9.3 66 3.4 SSW 7 9 4 5 1014.3 1011.8 0.2
23/07:30pm 16.2 14.4 9.4 64 3.6 SSW 9 11 5 6 1014.2 1011.7 0.2
23/07:00pm 16.4 14.5 9.1 62 3.9 SSW 9 11 5 6 1014.0 1011.5 0.2
23/06:30pm 17.0 15.5 9.2 60 4.2 SW 7 9 4 5 1013.8 1011.3 0.2
23/06:00pm 17.4 15.1 9.1 58 4.5 SW 11 15 6 8 1013.3 1010.9 0.2
23/05:30pm 18.3 15.5 8.6 53 5.2 SW 13 15 7 8 1012.9 1010.4 0.2
23/05:00pm 20.0 17.3 9.0 49 6.0 SW 13 19 7 10 1012.6 1010.1 0.2
23/04:30pm 20.6 17.8 8.6 46 6.5 SW 13 19 7 10 1012.3 1009.8 0.2
23/04:00pm 21.1 18.0 8.7 45 6.8 WSW 15 20 8 11 1012.2 1009.7 0.2
23/03:30pm 21.5 18.9 9.4 46 6.7 W 13 19 7 10 1012.4 1009.9 0.2
23/03:00pm 20.8 18.5 10.3 51 5.9 SSW 13 20 7 11 1012.5 1010.0 0.2
23/02:30pm 21.3 18.9 10.2 49 6.2 SW 13 20 7 11 1012.8 1010.3 0.2
23/02:00pm 21.0 18.5 9.6 48 6.3 SSW 13 20 7 11 1012.9 1010.4 0.2
23/01:30pm 20.4 17.0 9.3 49 6.1 SW 17 24 9 13 1013.2 1010.8 0.2
23/01:00pm 20.2 18.7 9.2 49 6.0 W 7 17 4 9 1013.7 1011.2 0.2
23/12:30pm - - - - - SW 19 28 10 15 1014.3 1011.8 0.2
23/12:00pm 19.5 16.1 9.1 51 5.6 SSW 17 26 9 14 1014.9 1012.5 0.2
23/11:30am 18.9 16.2 10.5 58 4.7 SSW 15 20 8 11 1015.4 1012.9 0.2

Latest Capital City Observations: Canberra | Sydney | Melbourne | Brisbane | Adelaide | Perth | Hobart | Darwin

Other Formats:

Comma delimited format used in spreadsheet applications
http://www.bom.gov.au/fwo/IDQ60901/IDQ60901.95551.axf

JavaScript Object Notation format (JSON) in row-major order
http://www.bom.gov.au/fwo/IDQ60901/IDQ60901.95551.json